Time;durP1;ratioP1;P1;durP2;ratioP2;P2;SDS_P1;SDS_P2;PMS_P1;PMS_P2;Temp;Humidity;BMP_temperature;BMP_pressure;BME280_temperature;BME280_humidity;BME280_pressure;Samples;Min_cycle;Max_cycle;Signal;HPM_P1;HPM_P2
2023/06/08 00:01:52;;;;;;;38.38;13.77;;;12.80;99.90;;;;;;5063628;28;20017;-68
2023/06/08 00:04:18;;;;;;;42.80;14.20;;;12.80;99.90;;;;;;5061764;28;20028;-68
2023/06/08 00:06:44;;;;;;;33.72;13.70;;;12.80;99.90;;;;;;5063843;28;20029;-68
2023/06/08 00:09:10;;;;;;;35.97;13.98;;;12.80;99.90;;;;;;5063335;28;20029;-68
2023/06/08 00:11:37;;;;;;;36.50;14.32;;;12.80;99.90;;;;;;5063335;28;20029;-69
2023/06/08 00:14:03;;;;;;;38.38;15.02;;;12.70;99.90;;;;;;5062310;28;20082;-68
2023/06/08 00:16:29;;;;;;;31.05;13.07;;;12.70;99.90;;;;;;5063933;28;20037;-69
2023/06/08 00:18:56;;;;;;;39.90;14.77;;;12.70;99.90;;;;;;5062619;28;20025;-70
2023/06/08 00:21:23;;;;;;;34.70;13.90;;;12.80;99.90;;;;;;5061859;28;20116;-69
2023/06/08 00:23:52;;;;;;;38.20;13.98;;;12.80;99.90;;;;;;5062956;28;20024;-68
2023/06/08 00:26:18;;;;;;;37.08;14.55;;;12.90;99.90;;;;;;5063051;28;20387;-69
2023/06/08 00:28:50;;;;;;;39.28;14.07;;;12.80;99.90;;;;;;5063314;28;20051;-69
2023/06/08 00:31:16;;;;;;;38.10;14.55;;;12.90;99.90;;;;;;5062103;28;20021;-69
2023/06/08 00:33:42;;;;;;;32.17;13.15;;;12.90;99.90;;;;;;5062922;28;20071;-70
2023/06/08 00:36:07;;;;;;;33.03;12.57;;;12.90;99.90;;;;;;5063392;28;20084;-67
2023/06/08 00:38:34;;;;;;;34.28;12.27;;;12.90;99.90;;;;;;5061503;28;20025;-69
2023/06/08 00:41:00;;;;;;;33.63;13.57;;;12.90;99.90;;;;;;5063142;28;20013;-67
2023/06/08 00:43:26;;;;;;;25.55;12.02;;;12.80;99.90;;;;;;5063188;28;20040;-68
2023/06/08 00:45:54;;;;;;;29.05;12.60;;;12.80;99.90;;;;;;5061955;28;20013;-67
2023/06/08 00:48:20;;;;;;;27.52;12.23;;;12.70;99.90;;;;;;5062653;28;20044;-68
2023/06/08 00:50:46;;;;;;;32.03;12.45;;;12.70;99.90;;;;;;5063119;28;20482;-68
2023/06/08 00:53:13;;;;;;;30.58;13.00;;;12.60;99.90;;;;;;5063193;28;20048;-68
2023/06/08 00:55:39;;;;;;;30.20;11.90;;;12.60;99.90;;;;;;5063008;28;20029;-71
2023/06/08 00:58:11;;;;;;;31.27;12.13;;;12.70;99.90;;;;;;5063032;28;20025;-68
2023/06/08 01:00:37;;;;;;;31.73;11.75;;;12.60;99.90;;;;;;5063193;28;20441;-68
2023/06/08 01:03:03;;;;;;;32.80;11.48;;;12.70;99.90;;;;;;5062165;28;20020;-68
2023/06/08 01:05:28;;;;;;;32.60;12.30;;;12.70;99.90;;;;;;5062701;28;20036;-70
2023/06/08 01:08:19;;;;;;;30.20;11.90;;;12.70;99.90;;;;;;5061757;28;20024;-70
2023/06/08 01:10:57;;;;;;;28.13;11.50;;;12.70;99.90;;;;;;5062178;28;20068;-69
2023/06/08 01:13:26;;;;;;;34.15;11.55;;;12.70;99.90;;;;;;5060876;28;20021;-68
2023/06/08 01:16:01;;;;;;;27.58;11.45;;;12.70;99.90;;;;;;5061999;28;20021;-69
2023/06/08 01:18:32;;;;;;;33.15;12.43;;;12.60;99.90;;;;;;5062398;28;20036;-68
2023/06/08 01:21:41;;;;;;;27.40;10.55;;;12.60;99.90;;;;;;5061320;28;20079;-68
2023/06/08 01:24:16;;;;;;;27.23;11.65;;;12.50;99.90;;;;;;5055482;28;20472;-67
2023/06/08 01:26:49;;;;;;;24.45;10.82;;;12.50;99.90;;;;;;5062500;28;20489;-69
2023/06/08 01:29:16;;;;;;;27.95;11.35;;;12.40;99.90;;;;;;5062077;28;20028;-68
2023/06/08 01:31:42;;;;;;;27.73;11.50;;;12.40;99.90;;;;;;5060256;28;20067;-68
2023/06/08 01:34:10;;;;;;;29.55;11.80;;;12.30;99.90;;;;;;5062378;28;20029;-68
2023/06/08 01:36:55;;;;;;;26.85;11.38;;;12.30;99.90;;;;;;5061730;28;20017;-68
2023/06/08 01:39:46;;;;;;;28.02;11.38;;;12.40;99.90;;;;;;5061246;28;20076;-69
2023/06/08 01:42:14;;;;;;;30.48;12.90;;;12.40;99.90;;;;;;5062332;28;20089;-69
2023/06/08 01:44:49;;;;;;;33.67;11.82;;;12.30;99.90;;;;;;5061718;28;20028;-68
2023/06/08 01:47:15;;;;;;;;;;;12.30;99.90;;;;;;5061171;28;20096;-69
2023/06/08 01:49:42;;;;;;;36.17;11.27;;;12.40;99.90;;;;;;5062286;28;19912;-68
2023/06/08 01:52:08;;;;;;;32.42;11.68;;;12.30;99.90;;;;;;5060839;28;20512;-68
2023/06/08 01:54:34;;;;;;;32.20;11.95;;;12.30;99.90;;;;;;5062148;28;20035;-67
2023/06/08 01:57:00;;;;;;;28.77;11.90;;;12.30;99.90;;;;;;5061209;28;20041;-68
2023/06/08 01:59:26;;;;;;;31.42;12.68;;;12.40;99.90;;;;;;5061166;28;20470;-69
2023/06/08 02:01:51;;;;;;;33.53;11.32;;;12.40;99.90;;;;;;5061555;28;20025;-68
2023/06/08 02:04:17;;;;;;;34.08;12.25;;;12.40;99.90;;;;;;5059446;28;20014;-68
2023/06/08 02:06:42;;;;;;;34.25;11.75;;;12.40;99.90;;;;;;5061215;28;20021;-69
2023/06/08 02:09:08;;;;;;;31.52;12.15;;;12.40;99.90;;;;;;5061233;28;20045;-68
2023/06/08 02:11:33;;;;;;;27.92;12.50;;;12.30;99.90;;;;;;5061179;28;20053;-70
2023/06/08 02:13:59;;;;;;;30.70;11.13;;;12.30;99.90;;;;;;5061437;28;20025;-68
2023/06/08 02:16:25;;;;;;;26.80;11.40;;;12.30;99.90;;;;;;5060126;28;20040;-68
2023/06/08 02:18:51;;;;;;;35.55;12.63;;;12.30;99.90;;;;;;5060465;28;20050;-68
2023/06/08 02:21:17;;;;;;;24.83;11.80;;;12.30;99.90;;;;;;5058959;28;20492;-68
2023/06/08 02:23:42;;;;;;;27.17;11.52;;;12.20;99.90;;;;;;5060467;28;20029;-69
2023/06/08 02:26:08;;;;;;;27.73;12.45;;;12.20;99.90;;;;;;5058807;28;20101;-67
2023/06/08 02:28:34;;;;;;;30.88;12.10;;;12.20;99.90;;;;;;5061339;28;20035;-68
2023/06/08 02:31:00;;;;;;;28.25;12.65;;;12.20;99.90;;;;;;5059963;28;20039;-68
2023/06/08 02:33:27;;;;;;;28.80;11.93;;;12.20;99.90;;;;;;5061091;28;20048;-67
2023/06/08 02:35:53;;;;;;;25.50;11.70;;;12.20;99.90;;;;;;5059856;28;20020;-70
2023/06/08 02:38:18;;;;;;;32.63;12.70;;;12.30;99.90;;;;;;5064061;28;20089;-68
2023/06/08 02:40:44;;;;;;;32.58;12.65;;;12.30;99.90;;;;;;5065198;28;20094;-69
2023/06/08 02:43:10;;;;;;;37.22;12.85;;;12.30;99.90;;;;;;5065568;28;20036;-68
2023/06/08 02:45:35;;;;;;;29.48;12.15;;;12.20;99.90;;;;;;5065414;28;20044;-68
2023/06/08 02:48:01;;;;;;;31.73;13.25;;;12.10;99.90;;;;;;5065129;28;20047;-67
2023/06/08 02:50:27;;;;;;;36.65;13.65;;;12.10;99.90;;;;;;5065559;28;20033;-67
2023/06/08 02:52:53;;;;;;;32.40;13.88;;;12.10;99.90;;;;;;5064543;28;20072;-68
2023/06/08 02:55:18;;;;;;;31.67;13.73;;;12.10;99.90;;;;;;5065365;28;20021;-67
2023/06/08 02:57:48;;;;;;;31.00;13.45;;;12.10;99.90;;;;;;5065478;28;20021;-69
2023/06/08 03:00:14;;;;;;;36.72;12.93;;;12.00;99.90;;;;;;5064546;28;20037;-69
2023/06/08 03:02:40;;;;;;;33.42;13.52;;;12.10;99.90;;;;;;5064306;28;20025;-68
2023/06/08 03:05:06;;;;;;;29.42;13.45;;;12.10;99.90;;;;;;5065226;28;20525;-68
2023/06/08 03:07:33;;;;;;;31.50;12.95;;;12.10;99.90;;;;;;5063558;28;20084;-68
2023/06/08 03:10:02;;;;;;;30.05;13.68;;;12.10;99.90;;;;;;5064210;28;20040;-70
2023/06/08 03:12:29;;;;;;;32.83;12.82;;;12.10;99.90;;;;;;5063560;28;20053;-69
2023/06/08 03:14:55;;;;;;;27.25;12.75;;;12.10;99.90;;;;;;5064114;28;20462;-68
2023/06/08 03:17:24;;;;;;;30.67;13.48;;;12.20;99.90;;;;;;5064630;28;20033;-69
2023/06/08 03:19:50;;;;;;;30.33;13.07;;;12.20;99.90;;;;;;5062999;28;20025;-68
2023/06/08 03:22:15;;;;;;;33.65;13.95;;;12.20;99.90;;;;;;5063858;28;20021;-69
2023/06/08 03:24:42;;;;;;;39.92;13.55;;;12.20;99.90;;;;;;5065055;28;20043;-70
2023/06/08 03:27:08;;;;;;;40.33;13.38;;;12.20;99.90;;;;;;5064319;28;20051;-69
2023/06/08 03:29:33;;;;;;;42.17;14.65;;;12.20;99.90;;;;;;5064404;28;20053;-68
2023/06/08 03:31:59;;;;;;;37.92;13.52;;;12.20;99.90;;;;;;5064468;28;20017;-69
2023/06/08 03:34:25;;;;;;;30.88;13.48;;;12.10;99.90;;;;;;5063837;28;20056;-70
2023/06/08 03:36:55;;;;;;;31.90;14.15;;;12.10;99.90;;;;;;5064384;28;20021;-69
2023/06/08 03:39:21;;;;;;;35.85;15.48;;;12.00;99.90;;;;;;5063729;28;20028;-67
2023/06/08 03:41:47;;;;;;;34.85;14.38;;;12.00;99.90;;;;;;5062862;28;20021;-70
2023/06/08 03:44:13;;;;;;;35.88;14.45;;;11.90;99.90;;;;;;5063171;28;20039;-70
2023/06/08 03:46:39;;;;;;;33.40;13.80;;;12.00;99.90;;;;;;5064489;28;20037;-69
2023/06/08 03:49:05;;;;;;;32.70;13.18;;;12.00;99.90;;;;;;5063963;28;20095;-69
2023/06/08 03:51:30;;;;;;;35.03;13.07;;;12.00;99.90;;;;;;5062941;28;20884;-70
2023/06/08 03:53:56;;;;;;;32.30;12.65;;;12.00;99.90;;;;;;5062914;28;20033;-68
2023/06/08 03:56:22;;;;;;;32.55;12.93;;;12.10;99.90;;;;;;5064034;28;20025;-69
2023/06/08 03:58:48;;;;;;;32.95;12.95;;;12.10;99.90;;;;;;5063882;28;20021;-69
2023/06/08 04:01:14;;;;;;;31.00;13.55;;;12.10;99.90;;;;;;5062637;28;20200;-69
2023/06/08 04:03:41;;;;;;;42.33;13.32;;;12.20;99.90;;;;;;5063003;28;20025;-69
2023/06/08 04:06:08;;;;;;;30.40;13.57;;;12.10;99.90;;;;;;5064166;28;20017;-69
2023/06/08 04:08:44;;;;;;;27.48;13.88;;;12.10;99.90;;;;;;5062595;28;20021;-68
2023/06/08 04:11:13;;;;;;;32.53;13.60;;;12.10;99.90;;;;;;5064032;28;20040;-70
2023/06/08 04:13:40;;;;;;;30.50;13.52;;;12.10;99.90;;;;;;5063862;28;20044;-68
2023/06/08 04:16:12;;;;;;;39.95;14.23;;;12.10;99.90;;;;;;5062820;28;20028;-69
2023/06/08 04:18:39;;;;;;;35.22;13.88;;;12.10;99.90;;;;;;5062988;28;20104;-68
2023/06/08 04:21:06;;;;;;;30.85;14.27;;;12.10;99.90;;;;;;5062592;28;20051;-67
2023/06/08 04:23:36;;;;;;;35.53;14.45;;;12.10;99.90;;;;;;5062516;28;20032;-69
2023/06/08 04:26:08;;;;;;;31.67;14.38;;;12.20;99.90;;;;;;5063158;28;20581;-68
2023/06/08 04:28:37;;;;;;;33.70;13.75;;;12.20;99.90;;;;;;5062424;28;20033;-70
2023/06/08 04:31:04;;;;;;;32.83;14.32;;;12.10;99.90;;;;;;5062153;28;20037;-68
2023/06/08 04:33:31;;;;;;;33.92;14.50;;;12.20;99.90;;;;;;5062927;28;20036;-68
2023/06/08 04:35:57;;;;;;;37.58;15.27;;;12.30;99.90;;;;;;5062765;28;20021;-68
2023/06/08 04:38:22;;;;;;;43.47;14.63;;;12.30;99.90;;;;;;5063254;28;20021;-68
2023/06/08 04:40:55;;;;;;;37.53;14.85;;;12.40;99.90;;;;;;5063536;28;20039;-70
2023/06/08 04:43:22;;;;;;;35.85;14.27;;;12.30;99.90;;;;;;5062776;28;20436;-70
2023/06/08 04:45:59;;;;;;;33.97;14.00;;;12.30;99.90;;;;;;5062140;28;20025;-69
2023/06/08 04:48:28;;;;;;;34.17;13.25;;;12.30;99.90;;;;;;5062299;28;20021;-69
2023/06/08 04:50:59;;;;;;;29.05;12.80;;;12.40;99.90;;;;;;5061856;28;20036;-69
2023/06/08 04:53:25;;;;;;;27.23;12.82;;;12.40;99.90;;;;;;5061687;28;20079;-69
2023/06/08 04:55:57;;;;;;;29.83;12.90;;;12.40;99.90;;;;;;5062821;28;20104;-69
2023/06/08 04:58:26;;;;;;;29.35;13.07;;;12.40;99.90;;;;;;5061989;28;20029;-69
2023/06/08 05:00:52;;;;;;;32.50;12.70;;;12.30;99.90;;;;;;5062364;28;20025;-69
2023/06/08 05:03:19;;;;;;;35.55;13.07;;;12.20;99.90;;;;;;5062763;28;20043;-69
2023/06/08 05:05:45;;;;;;;33.80;13.60;;;12.20;99.90;;;;;;5062560;28;20033;-69
2023/06/08 05:08:11;;;;;;;32.30;13.63;;;12.20;99.90;;;;;;5062512;28;20035;-71
2023/06/08 05:10:36;;;;;;;29.77;12.77;;;12.20;99.90;;;;;;5062920;28;20037;-69
2023/06/08 05:13:02;;;;;;;31.25;13.70;;;12.10;99.90;;;;;;5062114;28;20028;-69
2023/06/08 05:15:30;;;;;;;34.05;13.50;;;12.10;99.90;;;;;;5062479;28;20052;-68
2023/06/08 05:17:56;;;;;;;31.98;14.30;;;12.20;99.90;;;;;;5062682;28;20040;-68
2023/06/08 05:20:24;;;;;;;34.97;13.48;;;12.20;99.90;;;;;;5062270;28;20024;-70
2023/06/08 05:22:50;;;;;;;31.92;13.27;;;12.30;99.90;;;;;;5062589;28;20031;-69
2023/06/08 05:25:16;;;;;;;32.90;13.70;;;12.30;99.90;;;;;;5062586;28;20116;-69
2023/06/08 05:27:41;;;;;;;33.22;13.52;;;12.40;99.90;;;;;;5061788;28;20025;-69
2023/06/08 05:30:08;;;;;;;26.67;12.57;;;12.40;99.90;;;;;;5062546;28;20512;-69
2023/06/08 05:32:33;;;;;;;32.78;13.02;;;12.50;99.90;;;;;;5061093;28;20048;-68
2023/06/08 05:35:03;;;;;;;34.40;13.23;;;12.40;99.90;;;;;;5060961;28;20029;-68
2023/06/08 05:37:29;;;;;;;34.40;12.80;;;12.50;99.90;;;;;;5060520;28;20529;-68
2023/06/08 05:39:54;;;;;;;29.73;12.77;;;12.50;99.90;;;;;;5060618;28;20032;-66
2023/06/08 05:42:20;;;;;;;30.35;13.60;;;12.50;99.90;;;;;;5061199;28;20079;-67
2023/06/08 05:44:46;;;;;;;30.42;12.57;;;12.60;99.90;;;;;;5059358;28;20031;-68
2023/06/08 05:47:12;;;;;;;25.42;12.38;;;12.60;99.90;;;;;;5061540;28;20016;-68
2023/06/08 05:49:37;;;;;;;28.58;12.52;;;12.60;99.90;;;;;;5062185;28;20041;-68
2023/06/08 05:52:03;;;;;;;34.63;13.88;;;12.60;99.90;;;;;;5059437;28;20045;-67
2023/06/08 05:54:29;;;;;;;32.40;11.98;;;12.70;99.90;;;;;;5061362;28;20036;-68
2023/06/08 05:56:54;;;;;;;31.73;12.82;;;12.70;99.90;;;;;;5062010;28;20035;-67
2023/06/08 05:59:20;;;;;;;27.27;12.25;;;12.80;99.90;;;;;;5061647;28;20414;-67
2023/06/08 06:01:47;;;;;;;29.83;12.32;;;12.80;99.90;;;;;;5059565;28;20048;-67
2023/06/08 06:04:13;;;;;;;36.95;12.35;;;12.90;99.90;;;;;;5060900;28;20099;-67
2023/06/08 06:06:38;;;;;;;29.83;12.02;;;13.00;99.90;;;;;;5060674;28;20020;-67
2023/06/08 06:09:04;;;;;;;30.67;12.57;;;13.00;99.90;;;;;;5058513;28;20083;-69
2023/06/08 06:11:30;;;;;;;30.08;10.70;;;13.00;99.90;;;;;;5055478;28;20029;-68
2023/06/08 06:13:57;;;;;;;31.42;10.80;;;13.00;99.90;;;;;;5061456;28;20017;-67
2023/06/08 06:16:23;;;;;;;28.65;10.85;;;13.20;99.90;;;;;;5060837;28;20035;-69
2023/06/08 06:18:50;;;;;;;29.40;11.77;;;13.20;99.90;;;;;;5060069;28;20021;-68
2023/06/08 06:21:16;;;;;;;29.08;11.38;;;13.30;99.90;;;;;;5060494;28;20017;-68
2023/06/08 06:23:43;;;;;;;23.15;10.55;;;13.40;99.90;;;;;;5059739;28;20060;-68
2023/06/08 06:26:10;;;;;;;23.70;10.75;;;13.40;99.90;;;;;;5061960;28;20025;-67
2023/06/08 06:28:35;;;;;;;31.63;10.95;;;13.40;99.90;;;;;;5060802;28;20040;-69
2023/06/08 06:31:01;;;;;;;28.40;11.25;;;13.50;99.90;;;;;;5058149;28;20045;-67
2023/06/08 06:33:26;;;;;;;30.63;11.32;;;13.60;99.90;;;;;;5060557;28;20029;-67
2023/06/08 06:35:53;;;;;;;26.17;10.02;;;13.60;99.90;;;;;;5058722;28;20126;-66
2023/06/08 06:38:19;;;;;;;29.30;11.52;;;13.70;99.90;;;;;;5060879;28;20029;-69
2023/06/08 06:40:47;;;;;;;30.33;10.80;;;13.70;99.90;;;;;;5061970;28;20025;-67
2023/06/08 06:43:12;;;;;;;26.30;10.40;;;13.90;99.90;;;;;;5061088;28;20087;-67
2023/06/08 06:45:38;;;;;;;22.33;10.30;;;13.90;99.90;;;;;;5059683;28;20707;-66
2023/06/08 06:48:04;;;;;;;23.02;10.15;;;13.90;99.90;;;;;;5061212;28;20043;-66
2023/06/08 06:50:31;;;;;;;23.73;9.48;;;13.90;99.90;;;;;;5058381;28;20048;-67
2023/06/08 06:52:56;;;;;;;26.50;10.63;;;14.00;99.90;;;;;;5060857;28;20045;-67
2023/06/08 06:55:22;;;;;;;25.15;10.25;;;14.00;99.90;;;;;;5061457;28;20027;-67
2023/06/08 06:57:48;;;;;;;30.42;9.88;;;14.00;99.90;;;;;;5059562;28;20091;-69
2023/06/08 07:00:14;;;;;;;28.83;10.30;;;14.10;99.90;;;;;;5057164;28;20037;-67
2023/06/08 07:02:40;;;;;;;26.73;9.43;;;14.10;99.90;;;;;;5059302;28;20029;-67
2023/06/08 07:05:07;;;;;;;23.83;10.40;;;14.20;99.90;;;;;;5054698;28;20079;-66
2023/06/08 07:07:38;;;;;;;26.75;8.98;;;14.30;99.90;;;;;;5057405;28;20040;-69
2023/06/08 07:10:03;;;;;;;30.25;9.77;;;14.30;99.90;;;;;;5057508;28;20041;-67
2023/06/08 07:12:30;;;;;;;28.52;9.35;;;14.40;99.90;;;;;;5058791;28;20177;-68
2023/06/08 07:14:56;;;;;;;24.10;10.15;;;14.60;99.90;;;;;;5060464;28;20023;-67
2023/06/08 07:17:22;;;;;;;29.92;9.93;;;14.60;99.90;;;;;;5059072;28;20033;-68
2023/06/08 07:19:48;;;;;;;23.70;10.15;;;14.70;99.90;;;;;;5059730;28;20044;-68
2023/06/08 07:22:14;;;;;;;23.80;9.75;;;14.80;99.90;;;;;;5057386;28;20047;-69
2023/06/08 07:24:40;;;;;;;23.27;10.00;;;14.90;99.90;;;;;;5062908;28;20048;-66
2023/06/08 07:27:06;;;;;;;30.05;9.68;;;14.90;99.90;;;;;;5064715;28;20029;-66
2023/06/08 07:29:33;;;;;;;23.75;10.15;;;15.00;99.90;;;;;;5063528;28;20032;-65
2023/06/08 07:31:58;;;;;;;30.85;9.95;;;15.10;99.90;;;;;;5063311;28;20025;-67
2023/06/08 07:34:25;;;;;;;21.50;8.35;;;15.10;99.90;;;;;;5063051;28;20029;-66
2023/06/08 07:36:51;;;;;;;27.13;8.50;;;15.20;99.90;;;;;;5062744;28;20036;-66
2023/06/08 07:39:16;;;;;;;25.63;8.80;;;15.30;99.90;;;;;;5064001;28;20029;-67
2023/06/08 07:41:42;;;;;;;26.58;8.40;;;15.30;99.90;;;;;;5064337;28;20702;-67
2023/06/08 07:44:08;;;;;;;19.20;8.68;;;15.40;99.90;;;;;;5062788;28;20037;-68
2023/06/08 07:46:34;;;;;;;21.67;9.10;;;15.50;99.90;;;;;;5062043;28;20067;-66
2023/06/08 07:48:59;;;;;;;17.70;8.10;;;15.60;99.90;;;;;;5063815;28;20021;-67
2023/06/08 07:51:25;;;;;;;21.25;8.45;;;15.60;99.90;;;;;;5062921;28;20041;-67
2023/06/08 07:53:50;;;;;;;20.42;7.43;;;15.80;99.90;;;;;;5064024;28;20048;-67
2023/06/08 07:56:16;;;;;;;24.05;8.23;;;15.80;99.90;;;;;;5063628;28;20033;-67
2023/06/08 07:58:41;;;;;;;22.80;8.48;;;15.90;99.90;;;;;;5064378;28;20382;-69
2023/06/08 08:01:07;;;;;;;21.13;7.80;;;16.00;99.90;;;;;;5062725;28;20037;-68
2023/06/08 08:03:37;;;;;;;24.00;8.07;;;16.20;99.90;;;;;;5061686;28;20512;-68
2023/06/08 08:06:04;;;;;;;21.60;7.93;;;16.20;99.90;;;;;;5063479;28;20064;-68
2023/06/08 08:08:30;;;;;;;26.67;7.63;;;16.30;99.90;;;;;;5062895;28;20078;-67
2023/06/08 08:10:55;;;;;;;18.92;7.65;;;16.40;99.90;;;;;;5062173;28;20080;-67
2023/06/08 08:13:21;;;;;;;18.42;7.63;;;16.60;99.90;;;;;;5059819;28;20119;-67
2023/06/08 08:15:47;;;;;;;21.42;7.20;;;16.60;99.90;;;;;;5061933;28;20505;-68
2023/06/08 08:18:15;;;;;;;19.48;7.30;;;16.70;99.90;;;;;;5064182;28;20021;-66
2023/06/08 08:20:41;;;;;;;21.10;7.53;;;16.80;99.90;;;;;;5057903;28;20037;-68
2023/06/08 08:23:07;;;;;;;19.42;7.38;;;16.90;99.90;;;;;;5060244;28;20029;-67
2023/06/08 08:25:33;;;;;;;15.48;6.38;;;16.90;99.90;;;;;;5057906;28;20041;-67
2023/06/08 08:27:58;;;;;;;18.25;6.95;;;17.00;99.90;;;;;;5062010;28;20136;-67
2023/06/08 08:30:24;;;;;;;18.15;6.57;;;17.00;99.90;;;;;;5062723;28;20040;-68
2023/06/08 08:32:50;;;;;;;23.05;7.05;;;17.10;99.90;;;;;;5056714;28;20028;-66
2023/06/08 08:35:16;;;;;;;20.92;7.43;;;17.30;99.90;;;;;;5055942;28;20020;-68
2023/06/08 08:37:42;;;;;;;23.77;6.95;;;17.40;99.90;;;;;;5063551;28;20081;-67
2023/06/08 08:40:09;;;;;;;16.45;6.75;;;17.40;99.90;;;;;;5063252;28;20142;-67
2023/06/08 08:42:41;;;;;;;20.33;6.85;;;17.50;99.90;;;;;;5059348;28;20103;-66
2023/06/08 08:45:09;;;;;;;17.05;7.47;;;17.60;99.90;;;;;;5062281;28;20056;-67
2023/06/08 08:47:37;;;;;;;15.18;6.53;;;17.70;99.90;;;;;;5063137;28;20489;-67
2023/06/08 08:50:06;;;;;;;17.17;7.65;;;17.90;99.90;;;;;;5062366;28;20032;-67
2023/06/08 08:52:37;;;;;;;15.32;6.55;;;18.00;99.90;;;;;;5060931;28;20045;-66
2023/06/08 08:55:06;;;;;;;22.00;6.90;;;18.20;99.90;;;;;;5060567;28;20026;-67
2023/06/08 08:57:32;;;;;;;17.58;6.63;;;18.30;99.90;;;;;;5061572;28;20029;-68
2023/06/08 08:59:58;;;;;;;20.88;6.55;;;18.30;99.90;;;;;;5060780;28;20040;-67
2023/06/08 09:02:24;;;;;;;20.45;7.18;;;18.40;99.90;;;;;;5058522;28;20032;-67
2023/06/08 09:04:52;;;;;;;18.10;6.80;;;18.50;99.90;;;;;;5058174;28;20029;-66
2023/06/08 09:07:20;;;;;;;16.52;6.53;;;18.70;99.90;;;;;;5060632;28;20021;-69
2023/06/08 09:10:19;;;;;;;17.75;6.70;;;18.80;99.90;;;;;;5060990;28;20048;-66
2023/06/08 09:12:50;;;;;;;19.17;6.50;;;19.00;99.90;;;;;;5060549;28;20028;-66
2023/06/08 09:15:36;;;;;;;13.18;5.50;;;19.10;99.90;;;;;;5061610;28;20474;-66
2023/06/08 09:18:15;;;;;;;18.70;6.82;;;19.20;99.90;;;;;;5060964;28;20037;-67
2023/06/08 09:20:41;;;;;;;17.70;6.53;;;19.40;99.90;;;;;;5060933;28;20025;-67
2023/06/08 09:23:21;;;;;;;17.00;6.70;;;19.40;99.90;;;;;;5058188;28;20502;-66
2023/06/08 09:25:47;;;;;;;17.70;6.43;;;19.50;99.90;;;;;;5047480;28;20033;-68
2023/06/08 09:28:25;;;;;;;17.20;5.95;;;19.60;99.90;;;;;;5056003;28;20039;-68
2023/06/08 09:30:51;;;;;;;16.13;6.18;;;19.60;99.90;;;;;;5061378;28;20025;-67
2023/06/08 09:33:25;;;;;;;18.83;7.53;;;19.60;99.90;;;;;;5060742;28;20514;-66
2023/06/08 09:35:56;;;;;;;18.58;6.90;;;19.70;99.90;;;;;;5060877;28;20028;-68
2023/06/08 09:38:25;;;;;;;14.88;6.82;;;19.80;99.90;;;;;;5060127;28;20036;-68
2023/06/08 09:40:51;;;;;;;14.52;6.55;;;19.90;99.90;;;;;;5059565;28;20037;-67
2023/06/08 09:43:35;;;;;;;14.07;5.90;;;19.90;99.90;;;;;;5056190;28;20051;-68
2023/06/08 09:46:01;;;;;;;17.80;6.03;;;20.00;99.90;;;;;;5061061;28;20041;-67
2023/06/08 09:48:26;;;;;;;18.23;6.03;;;20.00;99.90;;;;;;5060749;28;20040;-66
2023/06/08 09:51:02;;;;;;;15.10;5.68;;;20.10;99.90;;;;;;5061670;28;20036;-67
2023/06/08 09:53:32;;;;;;;16.27;5.97;;;20.20;99.90;;;;;;5058372;28;20078;-67
2023/06/08 09:55:58;;;;;;;14.43;5.82;;;20.30;99.90;;;;;;5055982;28;20040;-68
2023/06/08 09:58:25;;;;;;;14.65;6.03;;;20.40;99.90;;;;;;5059972;28;20024;-67
2023/06/08 10:00:55;;;;;;;14.10;6.20;;;20.60;99.90;;;;;;5058389;28;20075;-66
2023/06/08 10:03:28;;;;;;;16.85;6.53;;;20.70;99.90;;;;;;5059151;28;20045;-69
2023/06/08 10:05:56;;;;;;;13.75;5.93;;;20.70;99.90;;;;;;5056898;28;20466;-67
2023/06/08 10:08:26;;;;;;;15.43;6.45;;;20.80;99.90;;;;;;5059295;28;20025;-67
2023/06/08 10:10:51;;;;;;;16.13;5.68;;;20.80;99.90;;;;;;5057532;28;20029;-68
2023/06/08 10:13:17;;;;;;;12.68;6.30;;;20.90;99.90;;;;;;5057292;28;20043;-68
2023/06/08 10:15:43;;;;;;;13.43;6.30;;;20.90;99.90;;;;;;5059363;28;20047;-68
2023/06/08 10:18:09;;;;;;;13.43;5.85;;;21.00;99.90;;;;;;5059009;28;20021;-68
2023/06/08 10:20:35;;;;;;;14.50;5.70;;;21.10;99.90;;;;;;5059839;28;20013;-66
2023/06/08 10:23:02;;;;;;;15.65;6.32;;;21.20;99.90;;;;;;5060480;28;20036;-66
2023/06/08 10:25:30;;;;;;;12.73;5.32;;;21.30;99.90;;;;;;5060572;28;20025;-67
2023/06/08 10:28:07;;;;;;;17.73;5.97;;;21.40;99.90;;;;;;5057509;28;20025;-67
2023/06/08 10:30:44;;;;;;;19.77;6.18;;;21.60;99.90;;;;;;5057436;28;20049;-68
2023/06/08 10:33:15;;;;;;;15.30;6.50;;;21.70;99.90;;;;;;5058225;28;20021;-69
2023/06/08 10:35:41;;;;;;;13.90;5.97;;;21.80;99.90;;;;;;5060666;28;20021;-66
2023/06/08 10:38:09;;;;;;;16.98;5.97;;;21.80;99.90;;;;;;5059469;28;20020;-66
2023/06/08 10:40:45;;;;;;;13.48;5.78;;;22.00;99.90;;;;;;5060175;28;20025;-66
2023/06/08 10:43:12;;;;;;;18.08;6.40;;;22.10;99.90;;;;;;5057540;28;20052;-67
2023/06/08 10:45:39;;;;;;;14.73;6.22;;;22.10;99.90;;;;;;5058049;28;21063;-67
2023/06/08 10:48:10;;;;;;;15.88;5.97;;;22.20;99.90;;;;;;5059334;28;20032;-67
2023/06/08 10:50:39;;;;;;;17.23;6.22;;;22.40;99.90;;;;;;5059097;28;20102;-68
2023/06/08 10:53:05;;;;;;;16.30;6.38;;;22.40;99.90;;;;;;5058230;28;20045;-67
2023/06/08 10:55:31;;;;;;;13.65;5.32;;;22.50;99.90;;;;;;5058500;28;20025;-65
2023/06/08 10:58:06;;;;;;;14.35;6.20;;;22.60;99.90;;;;;;5059513;28;20072;-66
2023/06/08 11:00:33;;;;;;;14.10;5.78;;;22.70;99.90;;;;;;5059038;28;20025;-65
2023/06/08 11:03:06;;;;;;;12.73;5.25;;;22.80;99.90;;;;;;5058519;28;20028;-68
2023/06/08 11:05:33;;;;;;;9.45;5.30;;;22.90;99.90;;;;;;5063016;28;20037;-67
2023/06/08 11:08:02;;;;;;;13.73;5.47;;;23.00;99.90;;;;;;5057140;28;20540;-67
2023/06/08 11:10:30;;;;;;;11.68;5.70;;;23.10;99.90;;;;;;5059484;28;20041;-67
2023/06/08 11:13:04;;;;;;;11.27;5.15;;;23.20;99.90;;;;;;5063151;28;20525;-68
2023/06/08 11:15:31;;;;;;;;;;;23.30;99.90;;;;;;5064478;28;20029;-67
2023/06/08 11:17:57;;;;;;;11.10;5.47;;;23.50;99.90;;;;;;5060528;28;19908;-67
2023/06/08 11:20:26;;;;;;;12.77;5.43;;;23.60;99.90;;;;;;5060751;28;20071;-68
2023/06/08 11:22:52;;;;;;;14.32;6.07;;;23.70;99.90;;;;;;5062320;28;20021;-67
2023/06/08 11:25:22;;;;;;;16.85;5.38;;;23.70;99.90;;;;;;5063625;28;20026;-69
2023/06/08 11:27:52;;;;;;;11.23;4.97;;;23.70;99.90;;;;;;5063164;28;20061;-69
2023/06/08 11:30:20;;;;;;;13.32;5.10;;;23.80;99.90;;;;;;5063220;28;20025;-66
2023/06/08 11:32:48;;;;;;;11.75;5.15;;;24.00;99.90;;;;;;5059985;28;20043;-68
2023/06/08 11:35:14;;;;;;;10.25;4.97;;;24.10;99.90;;;;;;5060577;28;20093;-67
2023/06/08 11:37:41;;;;;;;11.15;5.43;;;24.30;99.90;;;;;;5063156;28;20021;-66
2023/06/08 11:40:12;;;;;;;14.15;5.40;;;24.40;99.90;;;;;;5063744;28;20036;-68
2023/06/08 11:42:39;;;;;;;11.93;4.57;;;24.50;99.90;;;;;;5061030;28;20087;-67
2023/06/08 11:45:05;;;;;;;14.43;4.80;;;24.60;99.90;;;;;;5063316;28;20033;-67
2023/06/08 11:47:32;;;;;;;10.60;5.03;;;24.70;99.90;;;;;;5063125;28;20029;-68
2023/06/08 11:50:00;;;;;;;13.20;4.97;;;24.70;99.90;;;;;;5063423;28;20041;-67
2023/06/08 11:52:30;;;;;;;10.50;5.40;;;24.80;99.90;;;;;;5062153;28;20406;-66
2023/06/08 11:55:01;;;;;;;13.18;5.15;;;24.80;99.90;;;;;;5063209;28;20036;-67
2023/06/08 11:58:03;;;;;;;11.68;4.75;;;24.90;99.90;;;;;;5063599;28;20089;-66
2023/06/08 12:00:33;;;;;;;13.50;4.97;;;25.00;99.90;;;;;;5049961;28;20033;-67
2023/06/08 12:03:00;;;;;;;10.27;4.90;;;25.20;99.90;;;;;;5059482;28;20075;-65
2023/06/08 12:05:28;;;;;;;19.25;5.70;;;25.30;99.90;;;;;;5062026;28;20025;-67
2023/06/08 12:08:04;;;;;;;14.13;5.10;;;25.40;99.90;;;;;;5057977;28;20028;-67
2023/06/08 12:10:38;;;;;;;13.57;5.10;;;25.50;99.90;;;;;;5062970;28;20409;-68
2023/06/08 12:13:11;;;;;;;15.75;5.25;;;25.60;99.90;;;;;;5061774;28;20025;-66
2023/06/08 12:15:40;;;;;;;12.35;5.60;;;25.70;99.90;;;;;;5063890;28;20029;-67
2023/06/08 12:18:06;;;;;;;12.48;5.30;;;25.70;99.90;;;;;;5062231;28;20040;-68
2023/06/08 12:20:35;;;;;;;9.90;4.80;;;25.70;99.90;;;;;;5061835;28;20029;-67
2023/06/08 12:23:02;;;;;;;13.77;5.63;;;25.80;99.90;;;;;;5060835;28;20087;-66
2023/06/08 12:25:28;;;;;;;11.82;4.90;;;25.90;99.90;;;;;;5063607;28;20025;-68
2023/06/08 12:27:54;;;;;;;11.98;4.88;;;26.00;99.90;;;;;;5062847;28;20025;-66
2023/06/08 12:30:21;;;;;;;10.25;5.20;;;26.00;99.90;;;;;;5063977;28;20056;-69
2023/06/08 12:32:47;;;;;;;12.18;5.03;;;26.10;99.90;;;;;;5061360;28;20166;-67
2023/06/08 12:35:12;;;;;;;13.05;5.70;;;26.10;99.90;;;;;;5063687;28;20036;-69